sensor_id;sensor_type;location;lat;lon;timestamp;temperature;humidity
1415;DHT22;702;49.466;11.086;2024-01-15T00:00:48;-3.10;75.10
1415;DHT22;702;49.466;11.086;2024-01-15T00:03:15;-3.10;75.20
1415;DHT22;702;49.466;11.086;2024-01-15T00:05:42;-3.10;75.10
1415;DHT22;702;49.466;11.086;2024-01-15T00:08:11;-3.20;75.10
1415;DHT22;702;49.466;11.086;2024-01-15T00:10:38;-3.20;75.30
1415;DHT22;702;49.466;11.086;2024-01-15T00:13:09;-3.30;75.20
1415;DHT22;702;49.466;11.086;2024-01-15T00:15:36;-3.30;75.20
1415;DHT22;702;49.466;11.086;2024-01-15T00:18:04;-3.20;75.20
1415;DHT22;702;49.466;11.086;2024-01-15T00:20:32;-3.20;75.30
1415;DHT22;702;49.466;11.086;2024-01-15T00:23:01;-3.10;75.20
1415;DHT22;702;49.466;11.086;2024-01-15T00:25:29;-3.10;75.10
1415;DHT22;702;49.466;11.086;2024-01-15T00:27:56;-3.10;75.20
1415;DHT22;702;49.466;11.086;2024-01-15T00:30:24;-3.20;75.80
1415;DHT22;702;49.466;11.086;2024-01-15T00:32:52;-3.20;76.40
1415;DHT22;702;49.466;11.086;2024-01-15T00:35:19;-3.20;76.40
1415;DHT22;702;49.466;11.086;2024-01-15T00:37:46;-3.20;76.40
1415;DHT22;702;49.466;11.086;2024-01-15T00:40:14;-3.20;76.60
1415;DHT22;702;49.466;11.086;2024-01-15T00:42:43;-3.10;76.40
1415;DHT22;702;49.466;11.086;2024-01-15T00:45:11;-3.10;76.80
1415;DHT22;702;49.466;11.086;2024-01-15T00:47:38;-3.20;76.50
1415;DHT22;702;49.466;11.086;2024-01-15T00:50:07;-3.20;76.30
1415;DHT22;702;49.466;11.086;2024-01-15T00:52:35;-3.10;76.50
1415;DHT22;702;49.466;11.086;2024-01-15T00:55:03;-3.10;76.50
1415;DHT22;702;49.466;11.086;2024-01-15T00:57:31;-3.10;76.60
1415;DHT22;702;49.466;11.086;2024-01-15T01:00:00;-3.20;76.40
1415;DHT22;702;49.466;11.086;2024-01-15T01:02:27;-3.20;76.80
1415;DHT22;702;49.466;11.086;2024-01-15T01:04:55;-3.20;76.80
1415;DHT22;702;49.466;11.086;2024-01-15T01:07:24;-3.10;76.90
1415;DHT22;702;49.466;11.086;2024-01-15T01:09:51;-3.10;77.00
1415;DHT22;702;49.466;11.086;2024-01-15T01:12:20;-3.00;77.30
1415;DHT22;702;49.466;11.086;2024-01-15T01:14:47;-3.00;76.90
1415;DHT22;702;49.466;11.086;2024-01-15T01:17:15;-3.00;77.00
1415;DHT22;702;49.466;11.086;2024-01-15T01:19:43;-3.00;77.20
1415;DHT22;702;49.466;11.086;2024-01-15T01:22:10;-3.00;77.10
1415;DHT22;702;49.466;11.086;2024-01-15T01:24:37;-3.00;77.10
1415;DHT22;702;49.466;11.086;2024-01-15T01:27:05;-2.90;77.60
1415;DHT22;702;49.466;11.086;2024-01-15T01:29:32;-2.90;77.40
1415;DHT22;702;49.466;11.086;2024-01-15T01:31:59;-3.00;77.50
1415;DHT22;702;49.466;11.086;2024-01-15T01:34:33;-3.00;77.40
1415;DHT22;702;49.466;11.086;2024-01-15T01:37:07;-2.90;77.80
1415;DHT22;702;49.466;11.086;2024-01-15T01:39:35;-2.80;78.20
1415;DHT22;702;49.466;11.086;2024-01-15T01:42:02;-2.80;78.10
1415;DHT22;702;49.466;11.086;2024-01-15T01:44:34;-2.70;77.80
1415;DHT22;702;49.466;11.086;2024-01-15T01:47:02;-2.70;77.70
1415;DHT22;702;49.466;11.086;2024-01-15T01:49:32;-2.80;77.90
1415;DHT22;702;49.466;11.086;2024-01-15T01:52:03;-2.70;78.30
1415;DHT22;702;49.466;11.086;2024-01-15T01:54:32;-2.70;78.60
1415;DHT22;702;49.466;11.086;2024-01-15T01:57:02;-2.70;78.80
1415;DHT22;702;49.466;11.086;2024-01-15T01:59:34;-2.60;79.10
1415;DHT22;702;49.466;11.086;2024-01-15T02:02:03;-2.50;79.10
1415;DHT22;702;49.466;11.086;2024-01-15T02:04:32;-2.50;79.30
1415;DHT22;702;49.466;11.086;2024-01-15T02:07:02;-2.50;79.00
1415;DHT22;702;49.466;11.086;2024-01-15T02:09:29;-2.50;79.40
1415;DHT22;702;49.466;11.086;2024-01-15T02:11:57;-2.50;79.60
1415;DHT22;702;49.466;11.086;2024-01-15T02:14:24;-2.50;79.70
1415;DHT22;702;49.466;11.086;2024-01-15T02:16:52;-2.50;79.80
1415;DHT22;702;49.466;11.086;2024-01-15T02:19:23;-2.50;80.10
1415;DHT22;702;49.466;11.086;2024-01-15T02:21:52;-2.50;80.60
1415;DHT22;702;49.466;11.086;2024-01-15T02:24:20;-2.40;80.60
1415;DHT22;702;49.466;11.086;2024-01-15T02:26:48;-2.30;80.40
1415;DHT22;702;49.466;11.086;2024-01-15T02:29:16;-2.40;80.40
1415;DHT22;702;49.466;11.086;2024-01-15T02:31:43;-2.40;80.60
1415;DHT22;702;49.466;11.086;2024-01-15T02:34:11;-2.30;80.80
1415;DHT22;702;49.466;11.086;2024-01-15T02:36:38;-2.30;80.30
1415;DHT22;702;49.466;11.086;2024-01-15T02:39:06;-2.30;80.20
1415;DHT22;702;49.466;11.086;2024-01-15T02:41:35;-2.30;80.50
1415;DHT22;702;49.466;11.086;2024-01-15T02:44:03;-2.30;80.60
1415;DHT22;702;49.466;11.086;2024-01-15T02:46:30;-2.30;80.60
1415;DHT22;702;49.466;11.086;2024-01-15T02:49:00;-2.30;80.80
1415;DHT22;702;49.466;11.086;2024-01-15T02:51:29;-2.30;80.70
1415;DHT22;702;49.466;11.086;2024-01-15T02:53:57;-2.20;80.90
1415;DHT22;702;49.466;11.086;2024-01-15T02:56:25;-2.10;81.40
1415;DHT22;702;49.466;11.086;2024-01-15T02:58:53;-2.20;81.10
1415;DHT22;702;49.466;11.086;2024-01-15T03:01:21;-2.20;81.60
1415;DHT22;702;49.466;11.086;2024-01-15T03:03:48;-2.20;81.80
1415;DHT22;702;49.466;11.086;2024-01-15T03:06:16;-2.20;81.90
1415;DHT22;702;49.466;11.086;2024-01-15T03:08:44;-2.10;82.60
1415;DHT22;702;49.466;11.086;2024-01-15T03:11:11;-2.10;82.60
1415;DHT22;702;49.466;11.086;2024-01-15T03:13:38;-2.20;83.00
1415;DHT22;702;49.466;11.086;2024-01-15T03:16:07;-2.20;84.10
1415;DHT22;702;49.466;11.086;2024-01-15T03:18:34;-2.10;84.90
1415;DHT22;702;49.466;11.086;2024-01-15T03:21:01;-2.20;85.30
1415;DHT22;702;49.466;11.086;2024-01-15T03:23:28;-2.10;84.60
1415;DHT22;702;49.466;11.086;2024-01-15T03:25:56;-2.10;84.40
1415;DHT22;702;49.466;11.086;2024-01-15T03:28:23;-2.20;84.90
1415;DHT22;702;49.466;11.086;2024-01-15T03:30:51;-2.20;85.00
1415;DHT22;702;49.466;11.086;2024-01-15T03:33:22;-2.10;85.20
1415;DHT22;702;49.466;11.086;2024-01-15T03:35:49;-2.10;84.70
1415;DHT22;702;49.466;11.086;2024-01-15T03:38:17;-2.10;84.30
1415;DHT22;702;49.466;11.086;2024-01-15T03:40:44;-2.10;84.60
1415;DHT22;702;49.466;11.086;2024-01-15T03:43:12;-2.10;84.40
1415;DHT22;702;49.466;11.086;2024-01-15T03:45:40;-2.10;84.40
1415;DHT22;702;49.466;11.086;2024-01-15T03:48:07;-2.10;84.90
1415;DHT22;702;49.466;11.086;2024-01-15T03:50:36;-2.10;85.20
1415;DHT22;702;49.466;11.086;2024-01-15T03:53:04;-2.10;85.70
1415;DHT22;702;49.466;11.086;2024-01-15T03:55:32;-2.10;85.40
1415;DHT22;702;49.466;11.086;2024-01-15T03:58:00;-2.00;85.50
1415;DHT22;702;49.466;11.086;2024-01-15T04:00:27;-2.10;84.00
1415;DHT22;702;49.466;11.086;2024-01-15T04:02:55;-2.10;84.30
1415;DHT22;702;49.466;11.086;2024-01-15T04:05:22;-2.10;84.10
1415;DHT22;702;49.466;11.086;2024-01-15T04:07:51;-2.10;84.00
1415;DHT22;702;49.466;11.086;2024-01-15T04:10:19;-2.10;84.40
1415;DHT22;702;49.466;11.086;2024-01-15T04:12:49;-2.10;84.60
1415;DHT22;702;49.466;11.086;2024-01-15T04:15:16;-2.00;84.70
1415;DHT22;702;49.466;11.086;2024-01-15T04:17:43;-1.90;84.30
1415;DHT22;702;49.466;11.086;2024-01-15T04:20:11;-1.90;83.70
1415;DHT22;702;49.466;11.086;2024-01-15T04:22:38;-1.90;83.60
1415;DHT22;702;49.466;11.086;2024-01-15T04:25:08;-2.00;83.90
1415;DHT22;702;49.466;11.086;2024-01-15T04:27:35;-1.90;84.40
1415;DHT22;702;49.466;11.086;2024-01-15T04:30:02;-1.90;84.10
1415;DHT22;702;49.466;11.086;2024-01-15T04:32:31;-1.90;83.60
1415;DHT22;702;49.466;11.086;2024-01-15T04:34:58;-1.80;83.40
1415;DHT22;702;49.466;11.086;2024-01-15T04:37:28;-1.80;83.40
1415;DHT22;702;49.466;11.086;2024-01-15T04:39:57;-1.90;83.40
1415;DHT22;702;49.466;11.086;2024-01-15T04:42:25;-1.90;84.00
1415;DHT22;702;49.466;11.086;2024-01-15T04:44:53;-1.80;83.60
1415;DHT22;702;49.466;11.086;2024-01-15T04:47:20;-1.80;83.90
1415;DHT22;702;49.466;11.086;2024-01-15T04:49:50;-1.80;83.60
1415;DHT22;702;49.466;11.086;2024-01-15T04:52:17;-1.80;83.80
1415;DHT22;702;49.466;11.086;2024-01-15T04:54:45;-1.80;84.10
1415;DHT22;702;49.466;11.086;2024-01-15T04:57:12;-1.80;84.60
1415;DHT22;702;49.466;11.086;2024-01-15T04:59:40;-1.80;84.60
1415;DHT22;702;49.466;11.086;2024-01-15T05:02:07;-1.80;84.00
1415;DHT22;702;49.466;11.086;2024-01-15T05:04:35;-1.70;83.80
1415;DHT22;702;49.466;11.086;2024-01-15T05:07:02;-1.70;83.60
1415;DHT22;702;49.466;11.086;2024-01-15T05:09:31;-1.70;83.30
1415;DHT22;702;49.466;11.086;2024-01-15T05:11:58;-1.70;83.00
1415;DHT22;702;49.466;11.086;2024-01-15T05:14:26;-1.70;83.20
1415;DHT22;702;49.466;11.086;2024-01-15T05:16:55;-1.70;83.10
1415;DHT22;702;49.466;11.086;2024-01-15T05:19:22;-1.70;83.00
1415;DHT22;702;49.466;11.086;2024-01-15T05:21:49;-1.70;82.50
1415;DHT22;702;49.466;11.086;2024-01-15T05:24:17;-1.70;82.50
1415;DHT22;702;49.466;11.086;2024-01-15T05:26:44;-1.70;82.60
1415;DHT22;702;49.466;11.086;2024-01-15T05:29:12;-1.70;82.20
1415;DHT22;702;49.466;11.086;2024-01-15T05:31:40;-1.70;82.30
1415;DHT22;702;49.466;11.086;2024-01-15T05:34:11;-1.70;82.20
1415;DHT22;702;49.466;11.086;2024-01-15T05:36:38;-1.70;82.10
1415;DHT22;702;49.466;11.086;2024-01-15T05:39:05;-1.70;81.80
1415;DHT22;702;49.466;11.086;2024-01-15T05:41:33;-1.50;85.00
1415;DHT22;702;49.466;11.086;2024-01-15T05:44:00;-1.50;82.60
1415;DHT22;702;49.466;11.086;2024-01-15T05:46:29;-1.50;81.30
1415;DHT22;702;49.466;11.086;2024-01-15T05:48:56;-1.40;81.30
1415;DHT22;702;49.466;11.086;2024-01-15T05:51:26;-1.40;81.00
1415;DHT22;702;49.466;11.086;2024-01-15T05:53:53;-1.40;80.90
1415;DHT22;702;49.466;11.086;2024-01-15T05:56:20;-1.40;81.00
1415;DHT22;702;49.466;11.086;2024-01-15T05:58:47;-1.30;80.50
1415;DHT22;702;49.466;11.086;2024-01-15T06:01:15;-1.20;80.30
1415;DHT22;702;49.466;11.086;2024-01-15T06:03:42;-1.30;80.20
1415;DHT22;702;49.466;11.086;2024-01-15T06:06:11;-1.20;80.30
1415;DHT22;702;49.466;11.086;2024-01-15T06:08:40;-1.20;80.20
1415;DHT22;702;49.466;11.086;2024-01-15T06:11:07;-1.10;80.30
1415;DHT22;702;49.466;11.086;2024-01-15T06:13:34;-1.20;80.30
1415;DHT22;702;49.466;11.086;2024-01-15T06:16:02;-1.20;80.30
1415;DHT22;702;49.466;11.086;2024-01-15T06:18:30;-1.10;80.50
1415;DHT22;702;49.466;11.086;2024-01-15T06:20:57;-1.10;80.60
1415;DHT22;702;49.466;11.086;2024-01-15T06:23:24;-1.10;80.70
1415;DHT22;702;49.466;11.086;2024-01-15T06:25:53;-1.10;81.30
1415;DHT22;702;49.466;11.086;2024-01-15T06:28:21;-1.10;81.50
1415;DHT22;702;49.466;11.086;2024-01-15T06:30:48;-1.10;81.60
1415;DHT22;702;49.466;11.086;2024-01-15T06:33:16;-1.10;81.90
1415;DHT22;702;49.466;11.086;2024-01-15T06:35:43;-1.10;82.70
1415;DHT22;702;49.466;11.086;2024-01-15T06:38:10;-1.20;83.40
1415;DHT22;702;49.466;11.086;2024-01-15T06:40:37;-1.20;87.40
1415;DHT22;702;49.466;11.086;2024-01-15T06:43:08;-1.20;88.60
1415;DHT22;702;49.466;11.086;2024-01-15T06:45:36;-1.30;88.50
1415;DHT22;702;49.466;11.086;2024-01-15T06:48:03;-1.30;90.00
1415;DHT22;702;49.466;11.086;2024-01-15T06:50:31;-1.30;90.50
1415;DHT22;702;49.466;11.086;2024-01-15T06:52:59;-1.30;90.10
1415;DHT22;702;49.466;11.086;2024-01-15T06:55:26;-1.30;89.90
1415;DHT22;702;49.466;11.086;2024-01-15T06:57:53;-1.30;90.10
1415;DHT22;702;49.466;11.086;2024-01-15T07:00:22;-1.40;89.10
1415;DHT22;702;49.466;11.086;2024-01-15T07:02:49;-1.40;89.40
1415;DHT22;702;49.466;11.086;2024-01-15T07:05:17;-1.40;89.80
1415;DHT22;702;49.466;11.086;2024-01-15T07:07:44;-1.30;88.80
1415;DHT22;702;49.466;11.086;2024-01-15T07:10:13;-1.20;87.60
1415;DHT22;702;49.466;11.086;2024-01-15T07:12:42;-1.20;87.00
1415;DHT22;702;49.466;11.086;2024-01-15T07:15:10;-1.10;86.10
1415;DHT22;702;49.466;11.086;2024-01-15T07:17:39;-1.10;86.40
1415;DHT22;702;49.466;11.086;2024-01-15T07:20:07;-1.00;86.90
1415;DHT22;702;49.466;11.086;2024-01-15T07:22:35;-1.00;85.50
1415;DHT22;702;49.466;11.086;2024-01-15T07:25:03;-1.10;86.00
1415;DHT22;702;49.466;11.086;2024-01-15T07:27:32;-1.10;86.90
1415;DHT22;702;49.466;11.086;2024-01-15T07:29:59;-1.10;87.70
1415;DHT22;702;49.466;11.086;2024-01-15T07:32:28;-1.10;89.30
1415;DHT22;702;49.466;11.086;2024-01-15T07:34:56;-1.10;89.80
1415;DHT22;702;49.466;11.086;2024-01-15T07:37:25;-1.10;90.20
1415;DHT22;702;49.466;11.086;2024-01-15T07:39:52;-1.10;89.90
1415;DHT22;702;49.466;11.086;2024-01-15T07:42:20;-1.10;89.40
1415;DHT22;702;49.466;11.086;2024-01-15T07:44:47;-1.10;89.30
1415;DHT22;702;49.466;11.086;2024-01-15T07:47:14;-1.10;89.10
1415;DHT22;702;49.466;11.086;2024-01-15T07:49:41;-1.10;89.40
1415;DHT22;702;49.466;11.086;2024-01-15T07:52:10;-1.10;89.40
1415;DHT22;702;49.466;11.086;2024-01-15T07:54:38;-1.00;88.70
1415;DHT22;702;49.466;11.086;2024-01-15T07:57:06;-1.00;88.90
1415;DHT22;702;49.466;11.086;2024-01-15T07:59:33;-1.00;88.20
1415;DHT22;702;49.466;11.086;2024-01-15T08:02:01;-0.90;88.30
1415;DHT22;702;49.466;11.086;2024-01-15T08:04:29;-0.90;87.70
1415;DHT22;702;49.466;11.086;2024-01-15T08:06:57;-1.00;87.80
1415;DHT22;702;49.466;11.086;2024-01-15T08:09:25;-0.90;88.00
1415;DHT22;702;49.466;11.086;2024-01-15T08:11:53;-0.80;88.50
1415;DHT22;702;49.466;11.086;2024-01-15T08:14:20;-0.80;86.80
1415;DHT22;702;49.466;11.086;2024-01-15T08:16:47;-0.80;87.30
1415;DHT22;702;49.466;11.086;2024-01-15T08:19:14;-0.80;87.50
1415;DHT22;702;49.466;11.086;2024-01-15T08:21:41;-0.80;87.00
1415;DHT22;702;49.466;11.086;2024-01-15T08:24:09;-0.80;86.90
1415;DHT22;702;49.466;11.086;2024-01-15T08:26:38;-0.70;85.90
1415;DHT22;702;49.466;11.086;2024-01-15T08:29:05;-0.70;85.50
1415;DHT22;702;49.466;11.086;2024-01-15T08:31:32;-0.70;85.00
1415;DHT22;702;49.466;11.086;2024-01-15T08:33:59;-0.70;84.00
1415;DHT22;702;49.466;11.086;2024-01-15T08:36:27;-0.60;83.90
1415;DHT22;702;49.466;11.086;2024-01-15T08:38:55;-0.60;83.30
1415;DHT22;702;49.466;11.086;2024-01-15T08:41:22;-0.60;83.00
1415;DHT22;702;49.466;11.086;2024-01-15T08:43:51;-0.50;82.50
1415;DHT22;702;49.466;11.086;2024-01-15T08:46:19;-0.50;82.50
1415;DHT22;702;49.466;11.086;2024-01-15T08:48:46;-0.40;82.30
1415;DHT22;702;49.466;11.086;2024-01-15T08:51:13;-0.40;81.60
1415;DHT22;702;49.466;11.086;2024-01-15T08:53:40;-0.40;81.60
1415;DHT22;702;49.466;11.086;2024-01-15T08:56:08;-0.40;81.80
1415;DHT22;702;49.466;11.086;2024-01-15T08:58:35;-0.40;81.40
1415;DHT22;702;49.466;11.086;2024-01-15T09:01:03;-0.30;81.40
1415;DHT22;702;49.466;11.086;2024-01-15T09:03:31;-0.30;81.10
1415;DHT22;702;49.466;11.086;2024-01-15T09:05:59;-0.30;81.20
1415;DHT22;702;49.466;11.086;2024-01-15T09:08:26;-0.30;80.90
1415;DHT22;702;49.466;11.086;2024-01-15T09:10:55;-0.30;80.60
1415;DHT22;702;49.466;11.086;2024-01-15T09:13:22;-0.20;80.70
1415;DHT22;702;49.466;11.086;2024-01-15T09:15:50;-0.20;80.60
1415;DHT22;702;49.466;11.086;2024-01-15T09:18:18;-0.20;80.40
1415;DHT22;702;49.466;11.086;2024-01-15T09:20:46;-0.10;81.00
1415;DHT22;702;49.466;11.086;2024-01-15T09:23:13;-0.20;81.40
1415;DHT22;702;49.466;11.086;2024-01-15T09:25:41;-0.10;82.30
1415;DHT22;702;49.466;11.086;2024-01-15T09:28:08;0.00;82.90
1415;DHT22;702;49.466;11.086;2024-01-15T09:30:36;-0.10;83.00
1415;DHT22;702;49.466;11.086;2024-01-15T09:33:03;0.00;82.90
1415;DHT22;702;49.466;11.086;2024-01-15T09:35:32;0.10;82.60
1415;DHT22;702;49.466;11.086;2024-01-15T09:38:00;0.10;82.10
1415;DHT22;702;49.466;11.086;2024-01-15T09:40:31;0.10;81.70
1415;DHT22;702;49.466;11.086;2024-01-15T09:43:01;0.20;81.30
1415;DHT22;702;49.466;11.086;2024-01-15T09:45:29;0.20;81.20
1415;DHT22;702;49.466;11.086;2024-01-15T09:47:57;0.30;80.80
1415;DHT22;702;49.466;11.086;2024-01-15T09:50:24;0.30;80.80
1415;DHT22;702;49.466;11.086;2024-01-15T09:52:54;0.50;80.00
1415;DHT22;702;49.466;11.086;2024-01-15T09:55:23;0.50;79.20
1415;DHT22;702;49.466;11.086;2024-01-15T09:57:51;0.40;78.80
1415;DHT22;702;49.466;11.086;2024-01-15T10:00:19;0.30;79.20
1415;DHT22;702;49.466;11.086;2024-01-15T10:02:47;0.30;79.20
1415;DHT22;702;49.466;11.086;2024-01-15T10:05:15;0.30;79.30
1415;DHT22;702;49.466;11.086;2024-01-15T10:07:43;0.30;79.90
1415;DHT22;702;49.466;11.086;2024-01-15T10:10:14;0.30;79.50
1415;DHT22;702;49.466;11.086;2024-01-15T10:12:42;0.30;79.70
1415;DHT22;702;49.466;11.086;2024-01-15T10:15:10;0.40;79.60
1415;DHT22;702;49.466;11.086;2024-01-15T10:17:39;0.40;79.20
1415;DHT22;702;49.466;11.086;2024-01-15T10:20:09;0.30;79.00
1415;DHT22;702;49.466;11.086;2024-01-15T10:22:40;0.20;79.60
1415;DHT22;702;49.466;11.086;2024-01-15T10:25:10;0.30;80.60
1415;DHT22;702;49.466;11.086;2024-01-15T10:27:40;0.20;81.60
1415;DHT22;702;49.466;11.086;2024-01-15T10:30:08;0.10;82.70
1415;DHT22;702;49.466;11.086;2024-01-15T10:32:37;0.20;82.80
1415;DHT22;702;49.466;11.086;2024-01-15T10:35:05;0.10;81.70
1415;DHT22;702;49.466;11.086;2024-01-15T10:37:34;0.10;81.50
1415;DHT22;702;49.466;11.086;2024-01-15T10:40:02;0.20;81.20
1415;DHT22;702;49.466;11.086;2024-01-15T10:42:31;0.30;80.80
1415;DHT22;702;49.466;11.086;2024-01-15T10:45:01;0.30;80.60
1415;DHT22;702;49.466;11.086;2024-01-15T10:47:29;0.40;80.50
1415;DHT22;702;49.466;11.086;2024-01-15T10:49:56;0.40;80.00
1415;DHT22;702;49.466;11.086;2024-01-15T10:52:24;0.20;80.20
1415;DHT22;702;49.466;11.086;2024-01-15T10:54:52;0.20;80.60
1415;DHT22;702;49.466;11.086;2024-01-15T10:57:21;0.10;81.20
1415;DHT22;702;49.466;11.086;2024-01-15T10:59:48;0.00;81.40
1415;DHT22;702;49.466;11.086;2024-01-15T11:02:18;0.10;82.20
1415;DHT22;702;49.466;11.086;2024-01-15T11:04:45;0.30;82.20
1415;DHT22;702;49.466;11.086;2024-01-15T11:07:13;0.40;81.30
1415;DHT22;702;49.466;11.086;2024-01-15T11:09:41;0.40;80.90
1415;DHT22;702;49.466;11.086;2024-01-15T11:12:11;0.40;81.30
1415;DHT22;702;49.466;11.086;2024-01-15T11:14:40;0.50;80.50
1415;DHT22;702;49.466;11.086;2024-01-15T11:17:10;0.50;80.40
1415;DHT22;702;49.466;11.086;2024-01-15T11:19:43;0.50;80.50
1415;DHT22;702;49.466;11.086;2024-01-15T11:22:47;0.70;80.30
1415;DHT22;702;49.466;11.086;2024-01-15T11:25:18;0.70;79.60
1415;DHT22;702;49.466;11.086;2024-01-15T11:27:47;0.70;80.00
1415;DHT22;702;49.466;11.086;2024-01-15T11:30:17;0.70;79.70
1415;DHT22;702;49.466;11.086;2024-01-15T11:32:46;0.70;80.30
1415;DHT22;702;49.466;11.086;2024-01-15T11:35:15;0.80;79.90
1415;DHT22;702;49.466;11.086;2024-01-15T11:38:05;0.80;80.10
1415;DHT22;702;49.466;11.086;2024-01-15T11:40:39;0.80;80.50
1415;DHT22;702;49.466;11.086;2024-01-15T11:43:08;0.90;80.20
1415;DHT22;702;49.466;11.086;2024-01-15T11:45:36;0.80;79.90
1415;DHT22;702;49.466;11.086;2024-01-15T11:48:12;0.70;80.30
1415;DHT22;702;49.466;11.086;2024-01-15T11:50:43;0.70;80.40
1415;DHT22;702;49.466;11.086;2024-01-15T11:53:18;0.60;80.30
1415;DHT22;702;49.466;11.086;2024-01-15T11:55:51;0.70;80.70
1415;DHT22;702;49.466;11.086;2024-01-15T11:58:20;0.90;80.50
1415;DHT22;702;49.466;11.086;2024-01-15T12:00:48;0.80;79.60
1415;DHT22;702;49.466;11.086;2024-01-15T12:03:17;0.80;80.20
1415;DHT22;702;49.466;11.086;2024-01-15T12:05:45;0.70;80.40
1415;DHT22;702;49.466;11.086;2024-01-15T12:08:13;0.70;80.80
1415;DHT22;702;49.466;11.086;2024-01-15T12:10:41;0.70;81.60
1415;DHT22;702;49.466;11.086;2024-01-15T12:13:11;0.70;81.90
1415;DHT22;702;49.466;11.086;2024-01-15T12:15:39;0.70;82.00
1415;DHT22;702;49.466;11.086;2024-01-15T12:18:09;0.70;82.10
1415;DHT22;702;49.466;11.086;2024-01-15T12:20:37;0.60;82.40
1415;DHT22;702;49.466;11.086;2024-01-15T12:23:06;0.60;83.10
1415;DHT22;702;49.466;11.086;2024-01-15T12:25:35;0.60;83.30
1415;DHT22;702;49.466;11.086;2024-01-15T12:28:04;0.60;83.60
1415;DHT22;702;49.466;11.086;2024-01-15T12:30:33;0.60;83.90
1415;DHT22;702;49.466;11.086;2024-01-15T12:33:03;0.60;83.30
1415;DHT22;702;49.466;11.086;2024-01-15T12:35:31;0.70;83.70
1415;DHT22;702;49.466;11.086;2024-01-15T12:38:00;0.70;84.30
1415;DHT22;702;49.466;11.086;2024-01-15T12:40:31;0.80;84.30
1415;DHT22;702;49.466;11.086;2024-01-15T12:43:00;0.90;83.70
1415;DHT22;702;49.466;11.086;2024-01-15T12:45:28;0.90;83.20
1415;DHT22;702;49.466;11.086;2024-01-15T12:47:56;0.80;82.50
1415;DHT22;702;49.466;11.086;2024-01-15T12:50:25;0.80;83.10
1415;DHT22;702;49.466;11.086;2024-01-15T12:52:52;0.90;82.80
1415;DHT22;702;49.466;11.086;2024-01-15T12:55:19;0.90;82.10
1415;DHT22;702;49.466;11.086;2024-01-15T12:57:50;1.00;82.50
1415;DHT22;702;49.466;11.086;2024-01-15T13:00:20;1.10;82.30
1415;DHT22;702;49.466;11.086;2024-01-15T13:02:47;1.20;81.90
1415;DHT22;702;49.466;11.086;2024-01-15T13:05:16;1.10;81.40
1415;DHT22;702;49.466;11.086;2024-01-15T13:07:44;0.90;81.00
1415;DHT22;702;49.466;11.086;2024-01-15T13:10:12;0.80;81.90
1415;DHT22;702;49.466;11.086;2024-01-15T13:12:40;0.80;82.50
1415;DHT22;702;49.466;11.086;2024-01-15T13:15:10;0.70;82.70
1415;DHT22;702;49.466;11.086;2024-01-15T13:17:37;0.70;83.40
1415;DHT22;702;49.466;11.086;2024-01-15T13:20:07;0.80;84.00
1415;DHT22;702;49.466;11.086;2024-01-15T13:22:36;0.80;83.30
1415;DHT22;702;49.466;11.086;2024-01-15T13:25:05;0.60;83.20
1415;DHT22;702;49.466;11.086;2024-01-15T13:27:34;0.50;83.60
1415;DHT22;702;49.466;11.086;2024-01-15T13:30:02;0.50;84.40
1415;DHT22;702;49.466;11.086;2024-01-15T13:32:31;0.50;85.50
1415;DHT22;702;49.466;11.086;2024-01-15T13:35:00;0.50;85.20
1415;DHT22;702;49.466;11.086;2024-01-15T13:37:28;0.50;85.30
1415;DHT22;702;49.466;11.086;2024-01-15T13:39:55;0.50;86.10
1415;DHT22;702;49.466;11.086;2024-01-15T13:42:23;0.50;85.80
1415;DHT22;702;49.466;11.086;2024-01-15T13:44:52;0.60;85.70
1415;DHT22;702;49.466;11.086;2024-01-15T13:47:20;0.60;86.20
1415;DHT22;702;49.466;11.086;2024-01-15T13:49:49;0.60;86.40
1415;DHT22;702;49.466;11.086;2024-01-15T13:52:16;0.70;86.60
1415;DHT22;702;49.466;11.086;2024-01-15T13:54:44;0.70;86.60
1415;DHT22;702;49.466;11.086;2024-01-15T13:57:11;0.60;87.70
1415;DHT22;702;49.466;11.086;2024-01-15T13:59:39;0.60;87.50
1415;DHT22;702;49.466;11.086;2024-01-15T14:02:06;0.50;88.00
1415;DHT22;702;49.466;11.086;2024-01-15T14:04:33;0.40;88.50
1415;DHT22;702;49.466;11.086;2024-01-15T14:07:02;0.30;90.00
1415;DHT22;702;49.466;11.086;2024-01-15T14:09:30;0.30;90.70
1415;DHT22;702;49.466;11.086;2024-01-15T14:11:57;0.30;90.80
1415;DHT22;702;49.466;11.086;2024-01-15T14:14:25;0.30;90.90
1415;DHT22;702;49.466;11.086;2024-01-15T14:16:52;0.30;90.60
1415;DHT22;702;49.466;11.086;2024-01-15T14:19:19;0.30;90.80
1415;DHT22;702;49.466;11.086;2024-01-15T14:21:47;0.30;91.10
1415;DHT22;702;49.466;11.086;2024-01-15T14:24:15;0.30;91.10
1415;DHT22;702;49.466;11.086;2024-01-15T14:26:43;0.30;91.20
1415;DHT22;702;49.466;11.086;2024-01-15T14:29:11;0.30;91.20
1415;DHT22;702;49.466;11.086;2024-01-15T14:31:39;0.30;91.60
1415;DHT22;702;49.466;11.086;2024-01-15T14:34:06;0.30;90.60
1415;DHT22;702;49.466;11.086;2024-01-15T14:36:34;0.40;90.20
1415;DHT22;702;49.466;11.086;2024-01-15T14:39:01;0.30;90.10
1415;DHT22;702;49.466;11.086;2024-01-15T14:41:30;0.30;90.00
1415;DHT22;702;49.466;11.086;2024-01-15T14:43:58;0.40;90.30
1415;DHT22;702;49.466;11.086;2024-01-15T14:46:25;0.30;89.10
1415;DHT22;702;49.466;11.086;2024-01-15T14:48:53;0.40;88.90
1415;DHT22;702;49.466;11.086;2024-01-15T14:51:20;0.40;88.60
1415;DHT22;702;49.466;11.086;2024-01-15T14:53:48;0.30;88.00
1415;DHT22;702;49.466;11.086;2024-01-15T14:56:15;0.30;88.70
1415;DHT22;702;49.466;11.086;2024-01-15T14:58:44;0.30;88.90
1415;DHT22;702;49.466;11.086;2024-01-15T15:01:12;0.40;88.20
1415;DHT22;702;49.466;11.086;2024-01-15T15:03:39;0.30;88.60
1415;DHT22;702;49.466;11.086;2024-01-15T15:06:07;0.30;88.80
1415;DHT22;702;49.466;11.086;2024-01-15T15:08:35;0.40;88.80
1415;DHT22;702;49.466;11.086;2024-01-15T15:11:04;0.30;87.10
1415;DHT22;702;49.466;11.086;2024-01-15T15:13:31;0.40;86.90
1415;DHT22;702;49.466;11.086;2024-01-15T15:16:00;0.30;86.30
1415;DHT22;702;49.466;11.086;2024-01-15T15:18:27;0.30;86.40
1415;DHT22;702;49.466;11.086;2024-01-15T15:20:56;0.40;86.90
1415;DHT22;702;49.466;11.086;2024-01-15T15:23:23;0.30;86.30
1415;DHT22;702;49.466;11.086;2024-01-15T15:25:50;0.30;86.10
1415;DHT22;702;49.466;11.086;2024-01-15T15:28:18;0.30;85.30
1415;DHT22;702;49.466;11.086;2024-01-15T15:30:45;0.30;86.00
1415;DHT22;702;49.466;11.086;2024-01-15T15:33:14;0.30;85.40
1415;DHT22;702;49.466;11.086;2024-01-15T15:35:42;0.30;85.50
1415;DHT22;702;49.466;11.086;2024-01-15T15:38:09;0.30;84.50
1415;DHT22;702;49.466;11.086;2024-01-15T15:40:36;0.20;84.90
1415;DHT22;702;49.466;11.086;2024-01-15T15:43:04;0.20;84.60
1415;DHT22;702;49.466;11.086;2024-01-15T15:45:31;0.10;84.90
1415;DHT22;702;49.466;11.086;2024-01-15T15:47:59;0.00;85.20
1415;DHT22;702;49.466;11.086;2024-01-15T15:50:27;0.00;86.30
1415;DHT22;702;49.466;11.086;2024-01-15T15:52:55;-0.10;86.70
1415;DHT22;702;49.466;11.086;2024-01-15T15:55:23;0.00;88.20
1415;DHT22;702;49.466;11.086;2024-01-15T15:57:50;0.00;87.80
1415;DHT22;702;49.466;11.086;2024-01-15T16:00:18;0.00;88.70
1415;DHT22;702;49.466;11.086;2024-01-15T16:02:45;-0.10;87.80
1415;DHT22;702;49.466;11.086;2024-01-15T16:05:13;-0.10;88.70
1415;DHT22;702;49.466;11.086;2024-01-15T16:07:42;-0.10;88.80
1415;DHT22;702;49.466;11.086;2024-01-15T16:10:09;-0.10;88.50
1415;DHT22;702;49.466;11.086;2024-01-15T16:12:36;-0.10;86.60